createdAt,value
2023-01-01T01:29:22.213Z,2.55
2023-01-01T01:32:14.458Z,3.75
2023-01-01T01:35:09.162Z,5.62
2023-01-01T01:38:01.061Z,6.17
2023-01-01T01:40:54.299Z,6.17
2023-01-01T01:43:58.446Z,6.58
2023-01-01T01:49:36.302Z,7.15
2023-01-01T02:14:29.875Z,7.37
2023-01-01T02:17:25.949Z,7.20
2023-01-01T02:20:27.521Z,6.90
2023-01-01T02:23:57.642Z,7.00
2023-01-01T02:27:01.722Z,7.95
2023-01-01T02:29:58.677Z,6.92
2023-01-01T02:32:53.568Z,6.80
2023-01-01T02:35:48.619Z,6.87
2023-01-01T02:38:44.847Z,6.65
2023-01-01T02:41:43.558Z,6.42
2023-01-01T02:47:21.778Z,6.45
2023-01-01T02:50:16.492Z,5.87
2023-01-01T02:53:17.125Z,6.42
2023-01-01T02:56:11.681Z,6.58
2023-01-01T02:59:26.496Z,6.30
2023-01-01T03:02:34.132Z,6.37
2023-01-01T03:08:13.831Z,6.53
2023-01-01T03:11:09.809Z,7.33
2023-01-01T03:17:26.643Z,6.65
2023-01-01T03:20:21.538Z,6.83
2023-01-01T03:23:16.086Z,6.78
2023-01-01T03:26:12.069Z,7.05
2023-01-01T03:29:06.096Z,6.60
2023-01-01T03:32:00.957Z,6.58
2023-01-01T03:34:55.785Z,7.30
2023-01-01T03:37:50.586Z,5.78
2023-01-01T03:40:44.347Z,6.00
2023-01-01T03:43:41.936Z,6.42
2023-01-01T03:46:36.554Z,6.03
2023-01-01T03:53:01.491Z,6.17
2023-01-01T03:55:56.504Z,5.50
2023-01-01T03:58:52.417Z,5.83
2023-01-01T04:01:47.291Z,5.97
2023-01-01T04:19:07.476Z,5.60
2023-01-01T04:21:58.938Z,6.28
2023-01-01T04:24:50.489Z,5.50
2023-01-01T04:27:42.737Z,6.20
2023-01-01T04:36:11.570Z,5.45
2023-01-01T04:39:03.217Z,4.90
2023-01-01T04:41:54.732Z,5.58
2023-01-01T04:44:46.137Z,5.37
2023-01-01T04:47:37.738Z,5.62
2023-01-01T04:50:32.088Z,5.15
2023-01-01T04:53:23.957Z,5.33
2023-01-01T04:59:54.931Z,5.20
2023-01-01T05:05:29.616Z,4.62
2023-01-01T05:08:21.206Z,5.10
2023-01-01T05:11:14.860Z,5.03
2023-01-01T05:14:07.539Z,4.65
2023-01-01T05:16:59.390Z,5.12
2023-01-01T05:38:15.748Z,5.50
2023-01-01T05:41:10.199Z,5.75
2023-01-01T05:44:03.315Z,5.70
2023-01-01T06:00:32.198Z,5.10
2023-01-01T06:03:24.240Z,5.40
2023-01-01T06:08:57.858Z,5.30
2023-01-01T06:15:03.492Z,4.35
2023-01-01T06:17:54.949Z,5.30
2023-01-01T06:24:03.053Z,7.17
2023-01-01T06:26:54.909Z,5.40
2023-01-01T06:29:46.304Z,5.53
2023-01-01T06:32:38.045Z,5.95
2023-01-01T06:35:29.783Z,5.70
2023-01-01T06:41:07.306Z,5.60
2023-01-01T06:44:02.277Z,5.37
2023-01-01T06:46:54.219Z,5.78
2023-01-01T06:52:34.263Z,5.50
2023-01-01T06:55:27.215Z,5.85
2023-01-01T07:01:44.419Z,5.70
2023-01-01T07:04:33.652Z,5.87
2023-01-01T07:07:27.042Z,5.85
2023-01-01T07:13:11.669Z,5.47
2023-01-01T07:16:10.294Z,5.50
2023-01-01T07:18:58.699Z,5.55
2023-01-01T07:21:54.279Z,4.87
2023-01-01T07:24:46.158Z,5.80
2023-01-01T07:27:37.386Z,5.72
2023-01-01T07:30:29.208Z,6.20
2023-01-01T07:36:06.862Z,5.83
2023-01-01T07:39:00.033Z,5.12
2023-01-01T07:44:44.938Z,5.22
2023-01-01T07:47:37.856Z,5.60
2023-01-01T07:50:32.000Z,4.75
2023-01-01T07:56:10.925Z,5.30
2023-01-01T07:59:04.753Z,5.50
2023-01-01T08:01:56.817Z,5.17
2023-01-01T08:04:49.334Z,5.40
2023-01-01T08:07:45.211Z,5.03
2023-01-01T08:10:37.057Z,5.12
2023-01-01T08:13:28.357Z,5.40
2023-01-01T08:16:20.157Z,4.62
2023-01-01T08:19:12.073Z,5.05
2023-01-01T08:22:05.901Z,5.20
2023-01-01T08:24:58.154Z,4.28
2023-01-01T08:27:51.932Z,4.20
2023-01-01T08:30:43.426Z,4.10
2023-01-01T08:33:35.788Z,4.20
2023-01-01T08:36:27.611Z,4.08
2023-01-01T08:39:19.567Z,4.12
2023-01-01T08:42:12.490Z,4.47
2023-01-01T08:45:04.736Z,4.30
2023-01-01T08:47:56.769Z,4.65
2023-01-01T08:50:54.737Z,4.20
2023-01-01T08:53:51.194Z,3.98
2023-01-01T08:56:40.621Z,4.60
2023-01-01T08:59:32.234Z,3.95
2023-01-01T09:02:24.135Z,4.28
2023-01-01T09:05:17.081Z,4.25
2023-01-01T09:08:08.331Z,4.90
2023-01-01T09:11:02.756Z,4.25
2023-01-01T09:13:54.062Z,4.00
2023-01-01T09:16:45.517Z,4.37
2023-01-01T09:19:36.818Z,3.92
2023-01-01T09:22:28.297Z,4.10
2023-01-01T09:25:20.117Z,3.85
2023-01-01T09:28:14.013Z,3.35
2023-01-01T09:31:06.622Z,3.52
2023-01-01T09:33:58.182Z,3.72
2023-01-01T09:36:49.418Z,3.27
2023-01-01T09:39:41.543Z,3.58
2023-01-01T09:42:37.667Z,2.83
2023-01-01T09:45:32.135Z,3.05
2023-01-01T09:48:24.879Z,3.05
2023-01-01T09:51:19.417Z,3.12
2023-01-01T09:54:14.371Z,3.22
2023-01-01T09:57:14.870Z,2.90
2023-01-01T10:00:04.117Z,3.00
2023-01-01T10:06:07.928Z,3.20
2023-01-01T10:09:09.904Z,2.90
2023-01-01T10:12:04.442Z,2.30
2023-01-01T10:15:01.025Z,2.90
2023-01-01T10:17:53.980Z,2.05
2023-01-01T10:20:47.952Z,2.85
2023-01-01T10:23:42.973Z,2.35
2023-01-01T10:29:19.205Z,2.45
2023-01-01T10:32:21.276Z,3.02
2023-01-01T10:35:17.653Z,3.10
2023-01-01T10:38:08.664Z,2.62
2023-01-01T10:41:03.781Z,2.40
2023-01-01T10:43:55.174Z,1.90
2023-01-01T10:46:50.184Z,2.20
2023-01-01T10:49:56.581Z,2.40
2023-01-01T10:52:50.933Z,1.90
2023-01-01T10:55:41.913Z,1.90
2023-01-01T11:01:38.863Z,2.40
2023-01-01T11:04:29.847Z,2.37
2023-01-01T11:07:26.122Z,1.80
2023-01-01T11:10:22.130Z,1.75
2023-01-01T11:13:20.358Z,2.00
2023-01-01T11:16:13.266Z,1.57
2023-01-01T11:19:06.623Z,1.80
2023-01-01T11:21:57.710Z,1.90
2023-01-01T11:24:52.708Z,2.10
2023-01-01T11:27:44.653Z,1.37
2023-01-01T11:30:36.274Z,1.02
2023-01-01T11:33:28.677Z,1.67
2023-01-01T11:36:28.580Z,1.77
2023-01-01T11:39:27.399Z,1.92
2023-01-01T11:42:25.256Z,1.72
2023-01-01T11:45:20.804Z,1.72
2023-01-01T11:48:17.526Z,1.85
2023-01-01T11:53:50.681Z,1.60
2023-01-01T11:56:42.335Z,2.05
2023-01-01T11:59:37.779Z,1.60
2023-01-01T12:02:33.215Z,1.70
2023-01-01T12:05:27.902Z,2.02
2023-01-01T12:08:24.000Z,2.20
2023-01-01T12:13:59.214Z,1.42
2023-01-01T12:19:33.284Z,1.62
2023-01-01T12:22:24.773Z,1.42
2023-01-01T12:25:18.559Z,1.50
2023-01-01T12:28:18.361Z,1.40
2023-01-01T12:31:14.874Z,1.40
2023-01-01T12:34:11.330Z,1.15
2023-01-01T12:37:06.246Z,1.60
2023-01-01T12:42:54.440Z,1.50
2023-01-01T12:46:00.314Z,1.20
2023-01-01T12:51:48.243Z,1.40
2023-01-01T12:54:48.488Z,1.40
2023-01-01T12:57:43.162Z,1.50
2023-01-01T13:00:36.317Z,1.82
2023-01-01T13:06:10.958Z,1.50
2023-01-01T13:09:06.339Z,1.57
2023-01-01T13:12:00.827Z,1.52
2023-01-01T13:14:52.358Z,1.50
2023-01-01T13:17:45.002Z,1.67
2023-01-01T13:20:38.870Z,0.98
2023-01-01T13:23:45.904Z,1.12
2023-01-01T13:26:41.756Z,1.27
2023-01-01T13:32:17.592Z,1.10
2023-01-01T13:35:19.230Z,1.20
2023-01-01T13:38:37.103Z,1.60
2023-01-01T13:44:21.781Z,1.10
2023-01-01T13:47:18.098Z,1.00
2023-01-01T13:50:13.169Z,1.27
2023-01-01T13:53:38.783Z,1.40
2023-01-01T13:59:36.489Z,1.10
2023-01-01T14:18:15.204Z,1.35
2023-01-01T14:21:11.203Z,1.07
2023-01-01T14:24:05.655Z,0.95
2023-01-01T14:26:57.112Z,1.17
2023-01-01T14:32:33.533Z,1.12
2023-01-01T14:35:25.269Z,0.78
2023-01-01T14:38:25.871Z,1.00
2023-01-01T14:44:01.996Z,0.80
2023-01-01T14:46:55.107Z,1.02
2023-01-01T14:52:29.194Z,1.00
2023-01-01T14:55:21.988Z,0.72
2023-01-01T14:58:17.241Z,1.00
2023-01-01T15:04:00.592Z,1.12
2023-01-01T15:06:56.904Z,0.70
2023-01-01T15:12:30.029Z,0.90
2023-01-01T15:15:46.279Z,0.82
2023-01-01T15:18:45.969Z,1.00
2023-01-01T15:21:41.516Z,1.15
2023-01-01T15:24:33.518Z,1.05
2023-01-01T15:27:27.702Z,1.27
2023-01-01T15:33:12.491Z,0.80
2023-01-01T15:36:04.035Z,1.10
2023-01-01T15:38:56.033Z,0.80
2023-01-01T15:41:48.731Z,1.07
2023-01-01T15:44:39.639Z,0.90
2023-01-01T15:47:31.261Z,1.15
2023-01-01T15:50:27.314Z,1.45
2023-01-01T15:53:21.738Z,1.80
2023-01-01T15:56:14.717Z,1.60
2023-01-01T15:59:09.808Z,2.20
2023-01-01T16:02:17.160Z,2.30
2023-01-01T16:05:15.758Z,1.52
2023-01-01T16:08:08.237Z,2.15
2023-01-01T16:10:59.253Z,2.00
2023-01-01T16:13:50.310Z,2.17
2023-01-01T16:16:43.712Z,2.33
2023-01-01T16:19:35.318Z,1.85
2023-01-01T16:22:27.795Z,1.87
2023-01-01T16:25:21.225Z,2.70
2023-01-01T16:28:13.414Z,2.27
2023-01-01T16:31:04.854Z,2.08
2023-01-01T16:33:57.909Z,1.80
2023-01-01T16:36:48.957Z,1.92
2023-01-01T16:39:40.034Z,2.50
2023-01-01T16:42:31.325Z,2.00
2023-01-01T23:36:37.377Z,1.50
2023-01-01T23:42:07.896Z,1.50
2023-01-01T23:45:06.656Z,1.25
2023-01-01T23:48:10.966Z,1.60
2023-01-01T23:51:02.758Z,1.40
2023-01-01T23:53:54.462Z,1.17
2023-01-01T23:56:52.944Z,1.47
2023-01-01T23:59:54.776Z,1.60
